Time;durP1;ratioP1;P1;durP2;ratioP2;P2;SDS_P1;SDS_P2;PMS_P1;PMS_P2;Temp;Humidity;BMP_temperature;BMP_pressure;BME280_temperature;BME280_humidity;BME280_pressure;Samples;Min_cycle;Max_cycle;Signal;HPM_P1;HPM_P2
2023/05/25 00:01:35;;;;;;;36.85;3.50;;;37.00;35.00;;;;;;4889050;29;20039;-67
2023/05/25 00:04:02;;;;;;;31.70;3.13;;;36.90;34.60;;;;;;4888144;29;20055;-64
2023/05/25 00:06:32;;;;;;;27.95;3.88;;;36.90;34.30;;;;;;4889182;29;20029;-64
2023/05/25 00:08:58;;;;;;;20.23;3.03;;;36.90;34.30;;;;;;4886038;29;20021;-67
2023/05/25 00:11:26;;;;;;;32.65;3.22;;;36.80;34.50;;;;;;4884721;29;20381;-69
2023/05/25 00:13:52;;;;;;;20.83;3.30;;;36.80;33.90;;;;;;4884304;29;20097;-69
2023/05/25 00:16:19;;;;;;;25.20;3.30;;;36.60;34.10;;;;;;4892495;29;20458;-68
2023/05/25 00:18:47;;;;;;;28.42;3.33;;;36.60;34.10;;;;;;4887934;29;20586;-66
2023/05/25 00:21:14;;;;;;;33.50;3.40;;;36.50;34.00;;;;;;4887658;29;20487;-65
2023/05/25 00:23:41;;;;;;;24.02;3.30;;;36.50;34.00;;;;;;4889375;29;20042;-67
2023/05/25 00:26:08;;;;;;;23.05;5.97;;;36.50;34.30;;;;;;4883758;29;20058;-67
2023/05/25 00:28:35;;;;;;;31.33;4.95;;;36.30;34.60;;;;;;4883126;29;20404;-60
2023/05/25 00:31:01;;;;;;;75.00;6.05;;;36.30;34.70;;;;;;4884459;29;20063;-68
2023/05/25 00:33:27;;;;;;;74.13;4.80;;;36.20;34.30;;;;;;4885837;29;20046;-64
2023/05/25 00:35:55;;;;;;;17.52;2.58;;;36.00;34.40;;;;;;4890884;29;20033;-64
2023/05/25 00:38:22;;;;;;;16.02;3.17;;;35.90;34.40;;;;;;4891716;29;20506;-65
2023/05/25 00:40:53;;;;;;;21.02;2.85;;;35.80;34.20;;;;;;4889107;29;20086;-65
2023/05/25 00:43:19;;;;;;;20.80;2.97;;;35.70;35.00;;;;;;4887313;29;20119;-65
2023/05/25 00:45:46;;;;;;;15.93;3.25;;;35.70;36.00;;;;;;4882512;29;20122;-65
2023/05/25 00:48:14;;;;;;;22.95;3.25;;;35.60;36.40;;;;;;4887299;29;20048;-67
2023/05/25 00:50:42;;;;;;;22.80;2.92;;;35.50;36.70;;;;;;4886466;29;20042;-68
2023/05/25 00:53:10;;;;;;;26.23;2.72;;;35.40;36.20;;;;;;4890259;29;20477;-64
2023/05/25 00:56:02;;;;;;;20.05;2.63;;;35.30;37.10;;;;;;4888906;29;20405;-65
2023/05/25 00:58:34;;;;;;;31.45;9.90;;;35.30;37.30;;;;;;4890128;29;20043;-64
2023/05/25 01:01:02;;;;;;;28.30;11.65;;;35.20;37.40;;;;;;4889525;29;20105;-62
2023/05/25 01:03:36;;;;;;;25.52;9.60;;;35.10;38.00;;;;;;4890342;29;20134;-65
2023/05/25 01:06:08;;;;;;;32.60;11.60;;;35.00;38.30;;;;;;4884557;29;20040;-61
2023/05/25 01:08:36;;;;;;;21.38;3.65;;;35.00;37.90;;;;;;4888368;29;20472;-62
2023/05/25 01:11:04;;;;;;;13.07;2.97;;;35.00;38.00;;;;;;4888219;29;20042;-65
2023/05/25 01:13:32;;;;;;;25.10;3.00;;;34.90;38.40;;;;;;4887897;29;20036;-64
2023/05/25 01:15:59;;;;;;;21.88;4.43;;;34.80;39.10;;;;;;4887524;29;20475;-65
2023/05/25 01:18:27;;;;;;;21.08;2.22;;;34.70;39.50;;;;;;4886655;29;20416;-65
2023/05/25 01:21:19;;;;;;;16.08;4.10;;;34.60;38.40;;;;;;4885588;29;20126;-65
2023/05/25 01:24:21;;;;;;;8.93;2.40;;;34.70;39.20;;;;;;4882211;29;20080;-61
2023/05/25 01:27:26;;;;;;;61.70;3.75;;;34.60;39.40;;;;;;4883886;29;20044;-62
2023/05/25 01:29:55;;;;;;;36.72;3.20;;;34.70;40.00;;;;;;4887897;29;20074;-63
2023/05/25 01:32:21;;;;;;;24.52;3.05;;;34.60;39.80;;;;;;4887223;29;20044;-63
2023/05/25 01:34:49;;;;;;;15.45;2.80;;;34.50;40.10;;;;;;4890589;29;20045;-64
2023/05/25 01:37:18;;;;;;;25.88;3.13;;;34.50;40.30;;;;;;4892662;29;20078;-61
2023/05/25 01:39:44;;;;;;;15.63;2.50;;;34.50;40.80;;;;;;4891636;29;20040;-63
2023/05/25 01:42:11;;;;;;;17.95;2.90;;;34.50;40.30;;;;;;4890730;29;20099;-65
2023/05/25 01:44:38;;;;;;;19.13;3.10;;;34.40;40.50;;;;;;4892825;29;20537;-64
2023/05/25 01:47:48;;;;;;;13.15;2.50;;;34.60;40.60;;;;;;4891419;29;20568;-65
2023/05/25 01:50:28;;;;;;;21.75;2.90;;;34.60;41.80;;;;;;4867915;29;20181;-65
2023/05/25 01:53:14;;;;;;;28.13;3.35;;;34.60;41.00;;;;;;4891705;29;20121;-64
2023/05/25 01:55:54;;;;;;;19.25;3.42;;;34.50;42.10;;;;;;4892010;29;20063;-65
2023/05/25 01:58:21;;;;;;;16.58;2.65;;;34.30;41.80;;;;;;4888633;29;20453;-64
2023/05/25 02:00:50;;;;;;;18.27;2.33;;;34.20;42.10;;;;;;4893363;29;20052;-64
2023/05/25 02:03:17;;;;;;;13.88;2.40;;;33.90;42.50;;;;;;4894025;29;20051;-63
2023/05/25 02:05:44;;;;;;;18.90;2.58;;;33.80;43.60;;;;;;4892337;29;20073;-67
2023/05/25 02:08:11;;;;;;;20.02;3.28;;;33.70;43.10;;;;;;4891512;29;20516;-65
2023/05/25 02:10:37;;;;;;;19.20;3.10;;;33.60;43.20;;;;;;4891399;29;20146;-65
2023/05/25 02:13:04;;;;;;;16.33;2.60;;;33.40;43.20;;;;;;4892171;29;20072;-64
2023/05/25 02:15:32;;;;;;;17.40;2.88;;;33.30;43.70;;;;;;4892516;29;20104;-65
2023/05/25 02:17:59;;;;;;;28.75;2.88;;;33.10;32.60;;;;;;4893219;29;20077;-66
2023/05/25 02:20:27;;;;;;;22.02;2.60;;;33.00;30.00;;;;;;4892597;29;20169;-66
2023/05/25 02:22:53;;;;;;;20.75;2.60;;;32.80;30.30;;;;;;4892481;29;20501;-66
2023/05/25 02:25:19;;;;;;;17.08;2.65;;;32.70;30.40;;;;;;4892166;29;20047;-65
2023/05/25 02:27:46;;;;;;;11.63;2.10;;;32.60;30.10;;;;;;4892618;29;20055;-66
2023/05/25 02:30:13;;;;;;;30.25;4.05;;;32.50;30.10;;;;;;4890532;29;20108;-63
2023/05/25 02:32:39;;;;;;;37.42;3.95;;;32.50;30.20;;;;;;4891266;29;20080;-63
2023/05/25 02:35:06;;;;;;;22.90;3.50;;;32.60;30.10;;;;;;4891174;29;20100;-63
2023/05/25 02:37:33;;;;;;;30.98;2.97;;;32.50;31.40;;;;;;4891600;29;21238;-64
2023/05/25 02:39:59;;;;;;;19.52;3.20;;;32.50;30.30;;;;;;4890508;29;20055;-64
2023/05/25 02:42:25;;;;;;;24.95;2.80;;;32.40;33.30;;;;;;4887589;29;20516;-64
2023/05/25 02:44:52;;;;;;;20.02;3.30;;;32.30;40.10;;;;;;4891280;29;20135;-65
2023/05/25 02:47:18;;;;;;;19.17;2.53;;;32.20;43.20;;;;;;4893748;29;20053;-65
2023/05/25 02:49:45;;;;;;;17.55;2.58;;;32.00;44.10;;;;;;4891086;29;20445;-64
2023/05/25 02:52:12;;;;;;;17.80;3.17;;;31.90;44.40;;;;;;4891262;29;20063;-65
2023/05/25 02:54:38;;;;;;;24.02;3.17;;;31.70;44.90;;;;;;4887100;29;20169;-63
2023/05/25 02:57:07;;;;;;;13.45;3.25;;;31.60;45.60;;;;;;4889965;29;20407;-66
2023/05/25 02:59:33;;;;;;;16.75;3.30;;;31.60;46.80;;;;;;4893711;29;20076;-62
2023/05/25 03:02:00;;;;;;;12.10;3.22;;;31.60;47.20;;;;;;4891485;29;20101;-65
2023/05/25 03:04:26;;;;;;;15.30;3.15;;;31.40;47.50;;;;;;4890254;29;20051;-65
2023/05/25 03:06:52;;;;;;;12.65;3.05;;;31.30;48.20;;;;;;4890340;29;20062;-62
2023/05/25 03:09:19;;;;;;;11.15;3.38;;;31.30;48.10;;;;;;4889524;29;20424;-64
2023/05/25 03:11:46;;;;;;;18.80;3.17;;;31.20;46.70;;;;;;4890582;29;20771;-65
2023/05/25 03:14:12;;;;;;;19.20;3.58;;;31.10;46.20;;;;;;4890478;29;20524;-64
2023/05/25 03:16:38;;;;;;;12.85;3.30;;;31.00;46.10;;;;;;4892989;29;20055;-64
2023/05/25 03:19:06;;;;;;;9.55;2.63;;;31.00;47.10;;;;;;4889990;29;20079;-67
2023/05/25 03:21:32;;;;;;;13.00;2.95;;;31.00;46.20;;;;;;4890763;29;20061;-66
2023/05/25 03:23:59;;;;;;;16.73;2.97;;;30.90;46.90;;;;;;4889556;29;20112;-67
2023/05/25 03:26:25;;;;;;;11.05;2.80;;;30.80;48.10;;;;;;4889101;29;20116;-66
2023/05/25 03:28:52;;;;;;;14.90;3.55;;;30.80;48.70;;;;;;4892133;29;20065;-66
2023/05/25 03:31:18;;;;;;;12.38;2.58;;;30.80;49.70;;;;;;4890508;29;20092;-67
2023/05/25 03:33:45;;;;;;;11.07;2.22;;;30.70;49.90;;;;;;4889454;29;20098;-67
2023/05/25 03:36:12;;;;;;;17.48;2.85;;;30.50;49.80;;;;;;4888725;29;20074;-67
2023/05/25 03:38:38;;;;;;;12.52;3.35;;;30.40;49.70;;;;;;4888550;29;20478;-67
2023/05/25 03:41:05;;;;;;;15.95;3.95;;;30.40;49.80;;;;;;4888785;29;20795;-66
2023/05/25 03:43:31;;;;;;;14.68;4.57;;;30.30;50.20;;;;;;4885216;29;20064;-65
2023/05/25 03:45:58;;;;;;;14.40;2.35;;;30.30;51.10;;;;;;4889169;29;20057;-67
2023/05/25 03:48:24;;;;;;;13.70;2.60;;;30.20;50.90;;;;;;4886831;29;20094;-67
2023/05/25 03:50:50;;;;;;;28.35;3.17;;;30.10;50.90;;;;;;4890852;29;20150;-67
2023/05/25 03:53:17;;;;;;;9.43;2.10;;;30.10;50.30;;;;;;4890839;29;20495;-65
2023/05/25 03:55:43;;;;;;;18.70;2.70;;;30.10;50.60;;;;;;4890305;29;20087;-65
2023/05/25 03:58:10;;;;;;;14.60;2.65;;;30.00;50.20;;;;;;4890639;29;20113;-65
2023/05/25 04:00:36;;;;;;;13.13;2.50;;;30.00;50.90;;;;;;4891873;29;20439;-66
2023/05/25 04:03:03;;;;;;;12.25;2.70;;;29.90;51.50;;;;;;4888870;29;20061;-66
2023/05/25 04:05:29;;;;;;;14.43;3.33;;;29.90;52.40;;;;;;4888764;29;20124;-67
2023/05/25 04:07:56;;;;;;;17.83;3.10;;;29.80;52.80;;;;;;4889466;29;20554;-67
2023/05/25 04:10:22;;;;;;;12.40;2.45;;;29.80;52.80;;;;;;4887511;29;20073;-66
2023/05/25 04:12:50;;;;;;;14.32;2.20;;;29.80;50.70;;;;;;4888237;29;20071;-66
2023/05/25 04:15:17;;;;;;;13.13;2.88;;;29.70;50.70;;;;;;4890482;29;20318;-67
2023/05/25 04:17:43;;;;;;;14.40;2.83;;;29.70;50.50;;;;;;4890089;29;20495;-66
2023/05/25 04:20:10;;;;;;;14.50;4.38;;;29.80;50.30;;;;;;4891411;29;20099;-67
2023/05/25 04:22:39;;;;;;;15.40;4.82;;;29.70;51.20;;;;;;4904656;29;20090;-67
2023/05/25 04:25:09;;;;;;;17.80;4.75;;;29.70;51.60;;;;;;4889486;29;20073;-66
2023/05/25 04:27:35;;;;;;;26.75;4.82;;;29.60;51.60;;;;;;4888056;29;20073;-65
2023/05/25 04:30:03;;;;;;;22.75;4.32;;;29.60;51.10;;;;;;4891919;29;20200;-67
2023/05/25 04:32:30;;;;;;;14.20;3.72;;;29.60;50.20;;;;;;4889900;29;20081;-66
2023/05/25 04:34:57;;;;;;;21.00;4.97;;;29.40;47.80;;;;;;4888227;29;20084;-62
2023/05/25 04:37:27;;;;;;;21.73;3.80;;;29.80;47.20;;;;;;4889177;29;20591;-60
2023/05/25 04:39:56;;;;;;;27.92;4.50;;;30.00;44.00;;;;;;4888376;29;20564;-61
2023/05/25 04:42:22;;;;;;;39.28;5.40;;;30.20;41.90;;;;;;4887590;29;20122;-60
2023/05/25 04:44:54;;;;;;;30.98;4.60;;;30.30;39.40;;;;;;4886950;29;20070;-61
2023/05/25 04:47:23;;;;;;;34.33;4.93;;;30.30;37.90;;;;;;4888196;29;20084;-60
2023/05/25 04:49:50;;;;;;;27.33;3.53;;;30.40;36.70;;;;;;4889684;29;20094;-60
2023/05/25 04:52:16;;;;;;;32.78;3.72;;;30.40;35.10;;;;;;4888519;29;20062;-62
2023/05/25 04:54:43;;;;;;;28.55;4.00;;;30.40;35.20;;;;;;4888699;29;20129;-60
2023/05/25 04:57:09;;;;;;;32.45;3.13;;;30.10;34.90;;;;;;4889878;29;20106;-59
2023/05/25 04:59:35;;;;;;;17.10;2.92;;;30.00;34.90;;;;;;4892132;29;20070;-60
2023/05/25 05:02:02;;;;;;;21.35;3.67;;;29.80;34.60;;;;;;4891502;29;20069;-60
2023/05/25 05:04:29;;;;;;;18.13;3.25;;;29.80;35.10;;;;;;4890761;29;20104;-61
2023/05/25 05:06:55;;;;;;;29.98;4.05;;;29.80;35.10;;;;;;4892483;29;20138;-60
2023/05/25 05:09:22;;;;;;;19.45;3.90;;;29.70;34.90;;;;;;4894323;29;20168;-61
2023/05/25 05:11:48;;;;;;;18.67;3.67;;;29.80;35.60;;;;;;4895007;29;20103;-61
2023/05/25 05:14:15;;;;;;;18.30;3.60;;;29.90;37.40;;;;;;4894029;29;20093;-61
2023/05/25 05:16:42;;;;;;;21.05;3.45;;;29.80;37.60;;;;;;4893979;29;20070;-60
2023/05/25 05:19:08;;;;;;;26.05;3.67;;;29.60;38.40;;;;;;4895713;29;20074;-60
2023/05/25 05:21:35;;;;;;;22.98;4.28;;;29.60;39.00;;;;;;4892198;29;20465;-60
2023/05/25 05:24:01;;;;;;;22.33;4.28;;;29.60;41.60;;;;;;4892742;29;20096;-60
2023/05/25 05:26:28;;;;;;;26.50;4.38;;;29.60;43.20;;;;;;4890879;29;20077;-62
2023/05/25 05:28:55;;;;;;;19.65;3.67;;;29.60;43.70;;;;;;4891605;29;20561;-62
2023/05/25 05:31:23;;;;;;;18.17;3.15;;;29.50;44.20;;;;;;4892917;29;20665;-60
2023/05/25 05:33:49;;;;;;;14.02;3.05;;;29.40;44.70;;;;;;4892712;29;20105;-64
2023/05/25 05:36:15;;;;;;;13.70;3.17;;;29.50;42.00;;;;;;4895095;29;20139;-61
2023/05/25 05:38:45;;;;;;;15.43;3.10;;;29.30;37.70;;;;;;4893484;29;20073;-63
2023/05/25 05:41:14;;;;;;;15.32;3.22;;;29.40;37.90;;;;;;4891428;29;20160;-60
2023/05/25 05:43:42;;;;;;;17.48;3.60;;;29.20;40.00;;;;;;4892633;29;20154;-60
2023/05/25 05:46:12;;;;;;;12.55;2.40;;;28.80;43.30;;;;;;4892323;29;20129;-59
2023/05/25 05:48:38;;;;;;;9.73;2.53;;;28.80;46.20;;;;;;4891708;29;20068;-60
2023/05/25 05:51:06;;;;;;;14.52;2.60;;;28.80;47.80;;;;;;4894116;29;20133;-60
2023/05/25 05:53:34;;;;;;;12.95;2.20;;;28.80;47.60;;;;;;4893969;29;20062;-60
2023/05/25 05:56:01;;;;;;;13.75;2.72;;;28.80;47.10;;;;;;4893195;29;20145;-61
2023/05/25 05:58:29;;;;;;;15.43;2.78;;;28.90;46.30;;;;;;4890945;29;20069;-61
2023/05/25 06:00:56;;;;;;;11.52;2.45;;;28.90;44.90;;;;;;4891890;29;20205;-61
2023/05/25 06:03:23;;;;;;;9.75;2.60;;;28.80;44.10;;;;;;4893252;29;20073;-60
2023/05/25 06:05:49;;;;;;;11.50;2.80;;;28.60;41.40;;;;;;4892277;29;20157;-60
2023/05/25 06:08:16;;;;;;;14.00;2.80;;;28.60;39.60;;;;;;4891717;29;20580;-58
2023/05/25 06:10:42;;;;;;;21.63;3.33;;;28.60;39.10;;;;;;4892019;29;20176;-59
2023/05/25 06:13:08;;;;;;;9.45;3.10;;;28.60;39.50;;;;;;4891388;29;20071;-60
2023/05/25 06:15:35;;;;;;;13.45;3.13;;;28.50;39.40;;;;;;4893225;29;20092;-60
2023/05/25 06:18:02;;;;;;;50.90;38.90;;;28.50;38.90;;;;;;4890397;29;20063;-61
2023/05/25 06:20:29;;;;;;;19.38;4.53;;;28.40;39.00;;;;;;4892076;29;20096;-61
2023/05/25 06:22:55;;;;;;;26.77;13.85;;;28.20;40.10;;;;;;4892942;29;20066;-59
2023/05/25 06:25:22;;;;;;;17.88;3.40;;;28.20;42.50;;;;;;4891174;29;20073;-60
2023/05/25 06:27:49;;;;;;;13.20;2.92;;;28.10;43.60;;;;;;4891311;29;20080;-59
2023/05/25 06:30:15;;;;;;;16.77;3.60;;;28.10;42.00;;;;;;4892932;29;20442;-57
2023/05/25 06:32:42;;;;;;;13.32;3.08;;;28.10;40.90;;;;;;4893138;29;20130;-57
2023/05/25 06:35:11;;;;;;;18.30;3.22;;;28.00;40.00;;;;;;4893145;29;20156;-60
2023/05/25 06:37:37;;;;;;;24.55;2.70;;;28.00;39.40;;;;;;4892214;29;20127;-62
2023/05/25 06:40:04;;;;;;;18.98;3.35;;;27.80;39.60;;;;;;4891520;29;20608;-60
2023/05/25 06:42:31;;;;;;;15.25;3.55;;;27.80;40.10;;;;;;4891028;29;20085;-60
2023/05/25 06:44:57;;;;;;;17.60;3.33;;;27.70;39.90;;;;;;4889901;29;20588;-62
2023/05/25 06:47:23;;;;;;;13.40;3.00;;;27.50;38.80;;;;;;4888957;29;20080;-63
2023/05/25 06:49:50;;;;;;;15.32;2.90;;;27.40;38.90;;;;;;4892151;29;20075;-65
2023/05/25 06:52:16;;;;;;;13.30;3.30;;;27.40;38.90;;;;;;4892648;29;20085;-61
2023/05/25 06:54:42;;;;;;;13.60;2.67;;;27.40;38.50;;;;;;4891006;29;20501;-60
2023/05/25 06:57:09;;;;;;;10.98;3.03;;;27.40;38.30;;;;;;4891466;29;20107;-62
2023/05/25 06:59:35;;;;;;;9.68;2.55;;;27.40;38.50;;;;;;4894985;29;20065;-62
2023/05/25 07:02:02;;;;;;;10.73;2.95;;;27.30;37.10;;;;;;4890763;29;20523;-61
2023/05/25 07:04:28;;;;;;;10.10;2.40;;;27.30;37.20;;;;;;4890560;29;20209;-64
2023/05/25 07:06:54;;;;;;;14.40;2.70;;;27.30;37.70;;;;;;4889466;29;20085;-58
2023/05/25 07:09:21;;;;;;;11.77;2.58;;;27.10;37.20;;;;;;4888789;29;20463;-58
2023/05/25 07:11:47;;;;;;;14.77;2.60;;;27.00;37.30;;;;;;4887373;29;20079;-59
2023/05/25 07:14:14;;;;;;;13.90;2.45;;;27.10;36.80;;;;;;4888203;29;20176;-61
2023/05/25 07:16:40;;;;;;;12.50;2.75;;;27.20;36.90;;;;;;4887057;29;20153;-60
2023/05/25 07:19:06;;;;;;;19.67;3.38;;;27.10;37.40;;;;;;4888338;29;20078;-59
2023/05/25 07:21:33;;;;;;;21.48;3.50;;;27.00;37.70;;;;;;4887825;29;20531;-63
2023/05/25 07:24:00;;;;;;;11.65;2.90;;;27.00;38.30;;;;;;4886412;29;20162;-60
2023/05/25 07:26:27;;;;;;;12.45;3.10;;;26.90;39.10;;;;;;4887253;29;20163;-59
2023/05/25 07:28:55;;;;;;;14.38;3.08;;;26.80;39.20;;;;;;4888524;29;20105;-60
2023/05/25 07:31:22;;;;;;;17.58;2.88;;;26.80;38.80;;;;;;4887051;29;20087;-58
2023/05/25 07:33:48;;;;;;;11.15;2.75;;;26.80;39.00;;;;;;4888101;29;21691;-61
2023/05/25 07:36:15;;;;;;;13.05;3.35;;;26.80;38.60;;;;;;4886800;29;20533;-61
2023/05/25 07:38:42;;;;;;;25.70;3.40;;;26.80;38.30;;;;;;4890772;29;20204;-58
2023/05/25 07:41:08;;;;;;;20.30;3.00;;;26.80;38.50;;;;;;4886256;29;20110;-59
2023/05/25 07:43:35;;;;;;;24.40;3.30;;;26.90;38.50;;;;;;4887706;29;20077;-57
2023/05/25 07:46:01;;;;;;;16.38;2.92;;;26.90;38.50;;;;;;4886712;29;20082;-58
2023/05/25 07:48:27;;;;;;;8.73;2.55;;;26.80;37.50;;;;;;4887920;29;20083;-58
2023/05/25 07:50:54;;;;;;;14.13;2.50;;;26.70;36.30;;;;;;4886850;29;20074;-60
2023/05/25 07:53:20;;;;;;;12.48;2.35;;;26.60;36.50;;;;;;4888088;29;20086;-58
2023/05/25 07:55:47;;;;;;;14.52;2.50;;;26.50;36.80;;;;;;4885450;29;20092;-59
2023/05/25 07:58:13;;;;;;;12.07;3.10;;;26.60;36.40;;;;;;4885835;29;20459;-58
2023/05/25 08:00:40;;;;;;;8.80;2.50;;;26.60;36.80;;;;;;4888086;29;20080;-60
2023/05/25 08:03:06;;;;;;;11.65;2.50;;;26.50;35.80;;;;;;4889389;29;20067;-58
2023/05/25 08:05:32;;;;;;;9.57;2.13;;;26.50;35.30;;;;;;4882475;29;20095;-57
2023/05/25 08:07:59;;;;;;;15.00;2.60;;;26.60;35.10;;;;;;4889469;29;20071;-59
2023/05/25 08:10:30;;;;;;;9.50;2.30;;;26.50;35.60;;;;;;4888925;29;20162;-58
2023/05/25 08:12:57;;;;;;;7.63;1.95;;;26.50;35.70;;;;;;4889841;29;20420;-60
2023/05/25 08:15:25;;;;;;;7.55;2.47;;;26.50;34.90;;;;;;4889818;29;20106;-58
2023/05/25 08:17:51;;;;;;;8.23;2.05;;;26.40;35.00;;;;;;4889886;29;20083;-60
2023/05/25 08:20:18;;;;;;;9.38;2.42;;;26.40;35.20;;;;;;4889052;29;20130;-60
2023/05/25 08:22:44;;;;;;;13.13;2.90;;;26.40;35.40;;;;;;4891322;29;20128;-60
2023/05/25 08:25:11;;;;;;;9.50;2.72;;;26.30;36.60;;;;;;4890438;29;20076;-60
2023/05/25 08:27:37;;;;;;;9.63;2.95;;;26.30;36.00;;;;;;4887338;29;20084;-59
2023/05/25 08:30:07;;;;;;;7.28;2.60;;;26.30;36.10;;;;;;4890939;29;20083;-61
2023/05/25 08:32:33;;;;;;;17.92;2.33;;;26.10;36.40;;;;;;4889178;29;20075;-60
2023/05/25 08:35:00;;;;;;;12.20;2.40;;;26.10;36.30;;;;;;4888051;29;20087;-60
2023/05/25 08:37:28;;;;;;;9.68;2.78;;;26.10;36.60;;;;;;4886748;29;20119;-59
2023/05/25 08:39:54;;;;;;;8.50;2.72;;;26.10;36.90;;;;;;4885271;29;20068;-59
2023/05/25 08:42:20;;;;;;;6.13;2.30;;;26.00;37.00;;;;;;4903373;29;20078;-59
2023/05/25 08:44:47;;;;;;;5.55;2.10;;;26.00;37.00;;;;;;4892708;29;20136;-59
2023/05/25 08:47:16;;;;;;;8.07;2.30;;;25.90;37.50;;;;;;4891370;29;20076;-58
2023/05/25 08:49:44;;;;;;;12.93;2.58;;;25.90;37.50;;;;;;4891403;29;20183;-59
2023/05/25 08:52:13;;;;;;;16.63;3.03;;;25.80;37.70;;;;;;4891504;29;20099;-64
2023/05/25 08:54:43;;;;;;;12.50;3.30;;;25.70;37.70;;;;;;4890786;29;20453;-60
2023/05/25 08:57:34;;;;;;;10.30;2.85;;;25.70;37.80;;;;;;4892487;29;20103;-60
2023/05/25 09:00:11;;;;;;;22.15;2.63;;;25.60;37.90;;;;;;4882454;29;20139;-61
2023/05/25 09:02:50;;;;;;;10.45;2.45;;;25.60;38.20;;;;;;4891567;29;20151;-59
2023/05/25 09:05:17;;;;;;;14.70;3.20;;;25.60;37.70;;;;;;4893121;29;20100;-59
2023/05/25 09:07:44;;;;;;;8.07;2.55;;;25.40;37.70;;;;;;4891745;29;20697;-59
2023/05/25 09:10:11;;;;;;;13.07;2.70;;;25.40;38.60;;;;;;4889506;29;20072;-60
2023/05/25 09:12:38;;;;;;;11.52;2.50;;;25.40;38.20;;;;;;4892463;29;20092;-58
2023/05/25 09:15:05;;;;;;;11.90;2.78;;;25.40;38.30;;;;;;4892575;29;20092;-59
2023/05/25 09:17:31;;;;;;;8.02;2.13;;;25.30;38.60;;;;;;4893423;29;20067;-61
2023/05/25 09:19:58;;;;;;;7.45;2.35;;;25.30;40.40;;;;;;4891563;29;20083;-60
2023/05/25 09:22:25;;;;;;;16.20;2.92;;;25.10;39.30;;;;;;4891582;29;20100;-59
2023/05/25 09:24:52;;;;;;;10.55;2.58;;;25.20;39.30;;;;;;4891372;29;20154;-59
2023/05/25 09:27:21;;;;;;;11.18;2.40;;;25.20;38.70;;;;;;4894681;29;20532;-60
2023/05/25 09:29:49;;;;;;;13.77;2.47;;;25.20;39.50;;;;;;4892626;29;20087;-60
2023/05/25 09:32:16;;;;;;;13.98;2.80;;;25.10;39.50;;;;;;4891690;29;20075;-59
2023/05/25 09:34:44;;;;;;;10.13;2.50;;;25.20;38.90;;;;;;4892983;29;20101;-60
2023/05/25 09:37:15;;;;;;;13.30;2.60;;;25.10;39.30;;;;;;4891397;29;20108;-60
2023/05/25 09:39:42;;;;;;;9.57;2.72;;;25.00;39.40;;;;;;4890650;29;20682;-61
2023/05/25 09:42:10;;;;;;;13.30;2.75;;;25.10;40.40;;;;;;4893205;29;20567;-60
2023/05/25 09:44:36;;;;;;;13.20;2.97;;;25.10;39.90;;;;;;4891721;29;20087;-59
2023/05/25 09:47:05;;;;;;;17.17;3.00;;;25.00;40.50;;;;;;4894319;29;20080;-61
2023/05/25 09:49:31;;;;;;;12.85;2.90;;;24.90;40.80;;;;;;4893160;29;20154;-59
2023/05/25 09:51:59;;;;;;;11.68;2.95;;;24.90;40.70;;;;;;4892254;29;20088;-60
2023/05/25 09:54:26;;;;;;;11.75;2.58;;;24.90;40.30;;;;;;4890442;29;20181;-60
2023/05/25 09:56:53;;;;;;;7.28;2.88;;;24.80;40.30;;;;;;4891471;29;20508;-59
2023/05/25 09:59:20;;;;;;;13.32;3.30;;;24.60;40.50;;;;;;4893760;29;20072;-59
2023/05/25 10:01:53;;;;;;;7.70;2.92;;;24.50;40.70;;;;;;4891891;29;20076;-59
2023/05/25 10:04:19;;;;;;;7.68;2.97;;;24.40;41.00;;;;;;4892739;29;20087;-59
2023/05/25 10:06:50;;;;;;;9.90;2.83;;;24.30;41.10;;;;;;4893711;29;20076;-58
2023/05/25 10:09:21;;;;;;;8.18;3.22;;;24.20;40.60;;;;;;4891939;29;20091;-59
2023/05/25 10:11:51;;;;;;;10.73;3.50;;;24.30;41.30;;;;;;4890488;29;20572;-59
2023/05/25 10:14:27;;;;;;;8.23;2.90;;;24.30;42.20;;;;;;4891524;29;20131;-59
2023/05/25 10:16:56;;;;;;;6.72;3.13;;;24.30;41.80;;;;;;4891106;29;20094;-59
2023/05/25 10:19:32;;;;;;;10.45;2.75;;;24.20;41.40;;;;;;4892111;29;20080;-57
2023/05/25 10:22:06;;;;;;;10.90;3.33;;;23.90;42.50;;;;;;4892009;29;20544;-59
2023/05/25 10:24:51;;;;;;;11.93;3.53;;;24.00;42.50;;;;;;4891293;29;20619;-60
2023/05/25 10:27:20;;;;;;;11.27;3.83;;;24.00;42.20;;;;;;4891696;29;20084;-60
2023/05/25 10:29:50;;;;;;;15.23;3.65;;;24.00;41.80;;;;;;4892704;29;20076;-59
2023/05/25 10:32:18;;;;;;;19.10;3.85;;;24.00;41.80;;;;;;4892125;29;20083;-59
2023/05/25 10:34:45;;;;;;;13.15;4.25;;;23.90;42.20;;;;;;4890321;29;20455;-57
2023/05/25 10:37:15;;;;;;;17.38;4.97;;;23.90;42.30;;;;;;4890049;29;20107;-59
2023/05/25 10:39:42;;;;;;;15.95;4.55;;;23.90;42.60;;;;;;4889430;29;20157;-60
2023/05/25 10:42:10;;;;;;;18.10;5.00;;;23.80;42.70;;;;;;4891001;29;20167;-58
2023/05/25 10:44:37;;;;;;;17.10;4.80;;;23.80;42.90;;;;;;4890950;29;20088;-59
2023/05/25 10:47:05;;;;;;;12.57;4.18;;;23.70;43.10;;;;;;4891331;29;20493;-58
2023/05/25 10:49:32;;;;;;;14.73;3.78;;;23.60;43.30;;;;;;4889588;29;20163;-60
2023/05/25 10:52:00;;;;;;;20.02;4.53;;;23.50;43.70;;;;;;4891992;29;20572;-59
2023/05/25 10:54:38;;;;;;;11.65;3.60;;;23.50;43.70;;;;;;4891403;29;20099;-60
2023/05/25 10:57:09;;;;;;;14.20;3.88;;;23.50;43.80;;;;;;4890739;29;20088;-57
2023/05/25 10:59:40;;;;;;;15.07;3.85;;;23.50;44.00;;;;;;4891996;29;20076;-57
2023/05/25 11:02:07;;;;;;;15.23;4.05;;;23.50;44.40;;;;;;4892222;29;20577;-60
2023/05/25 11:04:36;;;;;;;13.85;3.58;;;23.50;44.50;;;;;;4891503;29;20144;-61
2023/05/25 11:07:04;;;;;;;10.73;3.65;;;23.30;44.90;;;;;;4890044;29;20095;-60
2023/05/25 11:09:30;;;;;;;11.00;3.65;;;23.30;45.50;;;;;;4891047;29;20425;-59
2023/05/25 11:12:02;;;;;;;23.30;3.88;;;23.30;44.20;;;;;;4891975;29;20124;-59
2023/05/25 11:14:34;;;;;;;22.80;4.20;;;23.30;44.10;;;;;;4890077;29;20090;-61
2023/05/25 11:17:13;;;;;;;18.67;3.67;;;23.30;44.30;;;;;;4890623;29;20079;-60
2023/05/25 11:19:55;;;;;;;13.82;3.65;;;23.30;44.60;;;;;;4889765;29;20088;-60
2023/05/25 11:22:35;;;;;;;14.23;3.17;;;23.20;44.60;;;;;;4890040;29;20073;-61
2023/05/25 11:25:03;;;;;;;15.05;2.92;;;23.00;45.40;;;;;;4893688;29;20083;-60
2023/05/25 11:27:30;;;;;;;12.75;3.15;;;23.00;44.90;;;;;;4893997;29;20156;-59
2023/05/25 11:29:58;;;;;;;16.58;3.13;;;22.90;45.60;;;;;;4896136;29;20554;-57
2023/05/25 11:32:26;;;;;;;14.77;3.40;;;22.90;45.70;;;;;;4890737;29;20103;-58
2023/05/25 11:34:56;;;;;;;17.75;3.25;;;22.90;45.70;;;;;;4890413;29;20108;-59
2023/05/25 11:37:25;;;;;;;14.23;2.97;;;22.90;46.40;;;;;;4888816;29;20115;-59
2023/05/25 11:39:52;;;;;;;16.27;3.15;;;22.90;46.20;;;;;;4886805;29;20588;-56
2023/05/25 11:42:23;;;;;;;28.48;3.65;;;22.80;45.90;;;;;;4888381;29;20134;-60
2023/05/25 11:44:50;;;;;;;23.25;3.20;;;22.70;46.20;;;;;;4891223;29;20076;-58
2023/05/25 11:47:21;;;;;;;11.73;2.88;;;22.70;46.80;;;;;;4890700;29;20083;-61
2023/05/25 11:49:48;;;;;;;18.50;3.08;;;22.60;47.90;;;;;;4888405;29;20166;-57
2023/05/25 11:52:16;;;;;;;9.60;2.90;;;22.60;47.80;;;;;;4888144;29;20094;-61
2023/05/25 11:54:43;;;;;;;15.88;2.70;;;22.60;47.50;;;;;;4888587;29;20083;-62
2023/05/25 11:57:23;;;;;;;14.20;3.03;;;22.50;47.20;;;;;;4889419;29;20183;-60
2023/05/25 11:59:54;;;;;;;20.33;3.33;;;22.50;47.40;;;;;;4891773;29;20083;-58
2023/05/25 12:02:22;;;;;;;14.95;2.88;;;22.50;47.70;;;;;;4890254;29;20091;-59
2023/05/25 12:05:00;;;;;;;9.00;2.97;;;22.50;47.60;;;;;;4889940;29;20190;-56
2023/05/25 12:07:27;;;;;;;15.07;2.88;;;22.40;47.80;;;;;;4888627;29;20078;-61
2023/05/25 12:10:08;;;;;;;20.77;3.90;;;22.30;48.20;;;;;;4889849;29;20088;-60
2023/05/25 12:12:57;;;;;;;14.40;3.00;;;22.30;48.10;;;;;;4890973;29;20076;-58
2023/05/25 12:15:25;;;;;;;17.17;3.72;;;22.20;48.70;;;;;;4889759;29;20104;-58
2023/05/25 12:17:52;;;;;;;14.88;3.60;;;22.20;49.20;;;;;;4888592;29;20096;-60
2023/05/25 12:20:19;;;;;;;20.08;3.30;;;22.20;48.80;;;;;;4890106;29;20436;-59
2023/05/25 12:22:46;;;;;;;20.52;3.28;;;22.20;48.40;;;;;;4890373;29;20137;-61
2023/05/25 12:25:17;;;;;;;19.45;3.30;;;22.10;48.40;;;;;;4887097;29;20525;-60
2023/05/25 12:27:43;;;;;;;17.45;3.50;;;22.10;50.90;;;;;;4890872;29;20092;-57
2023/05/25 12:30:11;;;;;;;18.63;3.30;;;22.20;49.90;;;;;;4891347;29;20072;-59
2023/05/25 12:33:01;;;;;;;14.68;3.90;;;22.10;49.70;;;;;;4889551;29;20072;-59
2023/05/25 12:35:28;;;;;;;21.88;3.70;;;22.10;49.30;;;;;;4889217;29;20456;-57
2023/05/25 12:38:16;;;;;;;13.73;3.20;;;22.00;49.00;;;;;;4886249;29;20115;-58
2023/05/25 12:40:43;;;;;;;15.23;3.65;;;21.90;51.40;;;;;;4887517;29;20076;-58
2023/05/25 12:43:13;;;;;;;21.13;3.55;;;21.80;51.20;;;;;;4890714;29;20068;-61
2023/05/25 12:45:42;;;;;;;22.90;4.38;;;22.00;50.90;;;;;;4888956;29;20442;-59